Latest Weather Observations for Maroochydore

IDQ60901

Issued at 4:51 am EST Tuesday 21 November 2017 (issued every 10 minutes, with the page automatically refreshed every 10 minutes)

About weather observations | Map of Brisbane area stations | Latest observations for Brisbane area | Other Formats
Station Details ID: 040861 Name: SUNSHINE COAST AIRPORT Lat: -26.60 Lon: 153.09 Height: 3.3 m
Data from the previous 72 hours. | See also: Recent months at Maroochydore
Date/Time
EST
Temp
°C
App
Temp
°C
Dew
Point
°C
Rel
Hum
%
Delta-T
°C
Wind Press
QNH
hPa
Press
MSL
hPa
Rain since
9am
mm
Dir  Spd
km/h
Gust
km/h
Spd
kts
Gust
kts
21/04:30am 17.7 17.9 16.7 94 0.6 S 11 17 6 9 1016.9 1016.9 9.4
21/04:00am 17.7 17.1 16.6 93 0.7 SSW 15 22 8 12 1016.7 1016.7 9.0
21/03:45am 17.5 17.2 16.4 93 0.7 SW 13 20 7 11 1016.7 1016.7 9.0
21/03:42am 17.5 16.8 16.4 93 0.7 SW 15 20 8 11 1016.6 1016.6 9.0
21/03:30am 17.5 16.7 16.2 92 0.8 SSW 15 24 8 13 1016.6 1016.6 8.8
21/03:19am 17.6 15.6 15.6 88 1.2 S 20 30 11 16 1016.8 1016.8 5.0
21/03:00am 18.2 16.2 15.6 85 1.5 SSW 20 28 11 15 1016.5 1016.5 2.6
21/02:30am 17.9 16.4 15.2 84 1.6 SSW 17 24 9 13 1016.8 1016.8 2.6
21/02:00am 18.0 16.4 15.1 83 1.7 SSW 17 26 9 14 1016.9 1016.9 2.6
21/01:30am 18.2 16.8 15.5 84 1.6 SSW 17 26 9 14 1017.0 1017.0 2.6
21/01:00am 18.1 17.1 15.7 86 1.4 SSW 15 20 8 11 1017.2 1017.2 2.6
21/12:30am 18.2 17.3 15.8 86 1.4 SSW 15 20 8 11 1017.5 1017.5 2.6
21/12:00am 18.1 17.1 15.5 85 1.5 SW 15 22 8 12 1017.7 1017.7 2.6
 
Date/Time
EST
Temp
°C
App
Temp
°C
Dew
Point
°C
Rel
Hum
%
Delta-T
°C
Wind Press
QNH
hPa
Press
MSL
hPa
Rain since
9am
mm
Dir  Spd
km/h
Gust
km/h
Spd
kts
Gust
kts
20/11:30pm 18.7 17.3 15.6 82 1.8 SSW 17 26 9 14 1018.3 1018.3 2.6
20/11:00pm 19.2 17.3 15.3 78 2.3 SSW 19 24 10 13 1018.4 1018.4 2.6
20/10:30pm 20.9 17.4 14.5 67 3.7 SE 26 35 14 19 1018.7 1018.7 2.6
20/10:00pm 20.8 17.4 14.7 68 3.6 SE 26 35 14 19 1018.7 1018.7 2.6
20/09:30pm 19.9 19.1 16.0 78 2.3 ESE 15 22 8 12 1018.9 1018.9 2.6
20/09:00pm 21.3 17.7 13.2 60 4.6 SE 24 33 13 18 1018.9 1018.9 2.0
20/08:30pm 21.3 17.4 13.2 60 4.6 SE 26 35 14 19 1018.9 1018.9 2.0
20/08:00pm 21.4 18.1 14.1 63 4.2 SE 24 33 13 18 1018.7 1018.7 2.0
20/07:30pm 21.6 17.7 14.3 63 4.3 SE 28 39 15 21 1018.4 1018.4 2.0
20/07:00pm 21.6 17.7 14.5 64 4.2 SE 28 39 15 21 1018.1 1018.1 2.0
20/06:30pm 21.9 18.9 14.8 64 4.2 SE 24 33 13 18 1018.2 1018.2 2.0
20/06:00pm 22.0 19.0 15.8 68 3.7 SE 26 35 14 19 1018.1 1018.1 2.0
20/05:30pm 22.1 19.1 14.7 63 4.4 SE 24 33 13 18 1017.8 1017.8 2.0
20/05:00pm 22.4 18.1 14.3 60 4.7 SE 30 39 16 21 1017.5 1017.5 2.0
20/04:30pm 22.9 18.9 14.2 58 5.1 SE 28 37 15 20 1017.5 1017.5 2.0
20/04:00pm 23.8 19.7 15.0 57 5.2 SE 30 39 16 21 1017.4 1017.4 2.0
20/03:30pm 23.5 19.8 15.0 59 5.1 SE 28 39 15 21 1017.4 1017.4 2.0
20/03:00pm 23.9 20.0 14.3 55 5.7 SE 28 37 15 20 1017.4 1017.4 2.0
20/02:30pm 24.6 21.4 15.2 55 5.6 SE 26 37 14 20 1017.6 1017.6 2.0
20/02:00pm 24.1 20.6 15.6 59 5.1 SE 28 33 15 18 1017.9 1017.9 2.0
20/01:30pm 22.0 18.7 16.1 69 3.6 SE 28 35 15 19 1018.0 1018.0 2.0
20/01:00pm 24.4 21.2 15.3 57 5.5 SE 26 35 14 19 1018.3 1018.3 2.0
20/12:30pm 24.7 21.5 16.4 60 5.1 SE 28 37 15 20 1018.5 1018.5 2.0
20/12:00pm 24.1 22.2 17.6 67 4.0 SE 24 35 13 19 1018.8 1018.8 2.0
20/11:30am 22.7 20.0 16.7 69 3.7 SSE 26 35 14 19 1019.0 1019.0 2.0
20/11:00am 23.2 20.6 17.7 71 3.4 SE 28 41 15 22 1019.3 1019.3 2.0
20/10:49am 21.2 19.9 17.2 78 2.4 SE 20 30 11 16 1019.3 1019.3 2.0
20/10:30am 19.4 17.2 15.9 80 2.1 SE 22 39 12 21 1019.4 1019.4 1.4
20/10:00am 22.0 19.7 18.4 80 2.2 SSE 28 41 15 22 1019.3 1019.3 0.0
20/09:30am 23.5 20.9 16.8 66 4.1 ESE 26 37 14 20 1019.1 1019.1 0.0
20/09:00am 20.9 19.8 17.7 82 2.0 SSE 20 39 11 21 1019.1 1019.1 9.4
20/08:56am 21.2 19.6 16.6 75 2.8 SSE 20 39 11 21 1019.0 1019.0 9.4
20/08:37am 20.0 20.4 17.2 84 1.7 SSW 11 19 6 10 1019.0 1019.0 9.4
20/08:30am 20.2 19.3 16.8 81 2.1 SSW 17 20 9 11 1018.9 1018.9 7.8
20/08:00am 22.9 19.5 14.7 60 4.8 SE 26 35 14 19 1018.6 1018.6 7.8
20/07:30am 20.0 19.8 17.6 86 1.5 SSE 15 22 8 12 1018.6 1018.6 7.8
20/07:00am 18.7 16.9 17.0 90 1.0 S 22 30 12 16 1018.2 1018.2 7.8
20/06:30am 18.0 17.0 16.7 92 0.8 SSW 17 24 9 13 1018.0 1018.0 7.8
20/06:00am 17.2 15.3 15.7 91 0.9 SSW 20 28 11 15 1017.7 1017.7 7.2
20/05:30am 17.1 15.4 15.8 92 0.8 SSW 19 30 10 16 1017.5 1017.5 7.2
20/05:11am 17.3 15.8 16.3 94 0.6 SW 19 26 10 14 1017.4 1017.4 7.2
20/05:00am 17.4 16.7 16.4 94 0.6 WSW 15 24 8 13 1017.2 1017.2 6.4
20/04:51am 17.4 16.3 16.3 93 0.7 SSW 17 26 9 14 1017.2 1017.2 5.4
20/04:30am 17.5 16.0 16.4 93 0.7 SSW 19 24 10 13 1016.9 1016.9 4.2
20/04:00am 17.6 16.1 16.3 92 0.8 SSW 19 26 10 14 1016.8 1016.8 3.8
20/03:30am 17.6 16.6 16.5 93 0.7 SSW 17 28 9 15 1016.7 1016.7 3.8
20/03:07am 17.5 16.4 16.4 93 0.7 SSW 17 24 9 13 1016.5 1016.5 2.6
20/03:00am 17.5 16.0 16.4 93 0.7 SSW 19 24 10 13 1016.5 1016.5 2.6
20/02:50am 17.6 16.5 16.3 92 0.8 SSW 17 24 9 13 1016.6 1016.6 2.4
20/02:30am 17.7 16.0 16.2 91 0.9 SSW 20 30 11 16 1016.6 1016.6 1.2
20/02:00am 18.1 16.7 15.5 85 1.5 SSW 17 24 9 13 1016.4 1016.4 1.0
20/01:30am 17.4 17.2 15.7 90 1.0 SW 11 15 6 8 1016.7 1016.7 1.0
20/01:00am 17.2 16.9 15.5 90 1.0 SW 11 13 6 7 1016.9 1016.9 1.0
20/12:30am 17.5 17.1 15.3 87 1.3 SW 11 13 6 7 1017.0 1017.0 1.0
20/12:00am 17.6 17.5 15.0 85 1.5 SW 9 13 5 7 1017.4 1017.4 1.0
 
Date/Time
EST
Temp
°C
App
Temp
°C
Dew
Point
°C
Rel
Hum
%
Delta-T
°C
Wind Press
QNH
hPa
Press
MSL
hPa
Rain since
9am
mm
Dir  Spd
km/h
Gust
km/h
Spd
kts
Gust
kts
19/11:30pm 18.2 17.7 14.9 81 1.9 SSW 11 13 6 7 1017.6 1017.6 1.0
19/11:00pm 20.7 18.3 14.4 67 3.7 SSE 20 26 11 14 1017.7 1017.7 1.0
19/10:30pm 21.0 18.3 14.6 67 3.7 SE 22 30 12 16 1018.1 1018.1 1.0
19/10:00pm 20.5 17.9 13.9 66 3.8 SE 20 26 11 14 1018.3 1018.3 1.0
19/09:30pm 20.7 18.6 14.6 68 3.6 SE 19 28 10 15 1018.3 1018.3 1.0
19/09:00pm 20.6 20.1 15.8 74 2.9 ESE 13 19 7 10 1018.6 1018.6 1.0
19/08:30pm 19.9 18.9 15.5 76 2.6 E 15 19 8 10 1018.5 1018.5 0.8
19/08:00pm 18.8 16.4 15.5 81 1.9 SSE 22 39 12 21 1018.6 1018.6 0.6
19/07:30pm 21.8 18.6 14.2 62 4.4 ESE 24 32 13 17 1018.0 1018.0 0.2
19/07:00pm 21.6 18.8 15.4 68 3.7 SE 24 35 13 19 1017.7 1017.7 0.2
19/06:30pm 21.4 18.3 14.6 65 4.0 SE 24 35 13 19 1017.6 1017.6 0.2
19/06:00pm 21.3 18.8 15.2 68 3.6 SE 22 30 12 16 1017.5 1017.5 0.2
19/05:30pm 21.9 18.6 14.0 61 4.6 SE 24 32 13 17 1017.0 1017.0 0.2
19/05:00pm 22.2 19.0 14.3 61 4.6 SE 24 35 13 19 1016.7 1016.7 0.2
19/04:30pm 22.8 19.5 15.1 62 4.6 ESE 26 32 14 17 1016.3 1016.3 0.2
19/04:00pm 23.2 19.9 16.0 64 4.4 SE 28 35 15 19 1016.0 1016.0 0.2
19/03:30pm 22.8 18.6 15.6 64 4.3 SE 32 39 17 21 1016.1 1016.1 0.2
19/03:00pm 22.8 18.7 15.9 65 4.2 ESE 32 46 17 25 1016.2 1016.2 0.2
19/02:30pm 24.3 20.7 16.3 61 4.9 SE 30 39 16 21 1016.3 1016.3 0.2
19/02:00pm 24.9 21.8 17.4 63 4.7 SE 30 41 16 22 1016.4 1016.4 0.2
19/01:30pm 25.1 21.8 14.9 53 6.1 ESE 26 35 14 19 1016.8 1016.8 0.2
19/01:00pm 24.5 21.2 15.1 55 5.6 ESE 26 33 14 18 1016.8 1016.8 0.2
19/12:30pm 25.2 22.5 14.6 51 6.3 ESE 22 30 12 16 1017.0 1017.0 0.2
19/12:00pm 24.8 22.7 16.2 58 5.2 ESE 22 30 12 16 1017.3 1017.3 0.2
19/11:30am 25.4 23.9 17.8 62 4.8 ESE 22 30 12 16 1017.4 1017.4 0.2
19/11:00am 24.3 22.1 15.0 56 5.6 ESE 20 28 11 15 1017.7 1017.7 0.2
19/10:30am 24.6 22.1 15.2 55 5.6 ESE 22 30 12 16 1017.6 1017.6 0.2
19/10:00am 24.4 22.2 15.9 59 5.2 ESE 22 30 12 16 1017.5 1017.5 0.0
19/09:30am 24.1 22.7 16.9 64 4.4 ESE 20 28 11 15 1017.3 1017.3 0.0
19/09:00am 21.5 22.8 18.5 83 1.9 WSW 9 11 5 6 1017.4 1017.4 43.2
19/08:30am 20.4 21.3 18.3 88 1.3 WSW 11 13 6 7 1017.2 1017.2 43.2
19/08:00am 19.8 21.2 18.6 93 0.7 WSW 9 13 5 7 1016.9 1016.9 43.2
19/07:30am 18.6 19.5 17.6 94 0.6 W 9 15 5 8 1016.8 1016.8 43.2
19/07:00am 18.1 18.2 17.5 96 0.4 NW 13 17 7 9 1016.5 1016.5 43.2
19/06:30am 17.8 17.4 17.2 96 0.4 W 15 20 8 11 1015.9 1015.9 43.2
19/06:29am 17.7 17.3 17.1 96 0.4 W 15 20 8 11 1015.9 1015.9 43.2
19/06:16am 17.7 17.7 17.1 96 0.4 WSW 13 17 7 9 1015.8 1015.8 43.2
19/06:15am 17.6 17.5 17.0 96 0.4 WSW 13 17 7 9 1015.8 1015.8 43.2
19/06:00am 17.4 18.0 16.8 96 0.4 NW 9 17 5 9 1015.5 1015.5 43.2
19/05:56am 17.4 18.0 16.8 96 0.4 NW 9 13 5 7 1015.5 1015.5 42.8
19/05:30am 17.2 16.6 16.6 96 0.4 WSW 15 19 8 10 1015.1 1015.1 42.2
19/05:00am 17.1 17.2 16.5 96 0.4 W 11 15 6 8 1015.1 1015.1 42.2
19/04:30am 17.2 17.3 16.6 96 0.4 WSW 11 17 6 9 1014.8 1014.8 42.2
19/04:12am 17.2 19.4 16.6 96 0.4 CALM 0 6 0 3 1014.8 1014.8 42.0
19/04:00am 17.2 17.7 16.6 96 0.4 WSW 9 15 5 8 1014.7 1014.7 41.2
19/03:50am 17.3 17.5 16.7 96 0.4 SSW 11 17 6 9 1014.6 1014.6 41.2
19/03:36am 17.3 16.3 16.7 96 0.4 S 17 22 9 12 1014.6 1014.6 41.0
19/03:30am 17.4 16.9 16.8 96 0.4 SSW 15 22 8 12 1014.8 1014.8 40.2
19/03:02am 17.1 17.6 16.5 96 0.4 NW 9 13 5 7 1014.6 1014.6 40.0
19/03:01am 17.0 17.8 16.4 96 0.4 NW 7 11 4 6 1014.6 1014.6 40.0
19/03:00am 17.0 17.8 16.4 96 0.4 NW 7 11 4 6 1014.6 1014.6 40.0
19/02:31am 17.1 17.2 16.5 96 0.4 NW 11 17 6 9 1014.9 1014.9 35.8
19/02:30am 17.1 17.2 16.5 96 0.4 NW 11 17 6 9 1014.8 1014.8 35.6
19/02:07am 16.8 17.5 16.2 96 0.4 NNW 7 15 4 8 1015.1 1015.1 25.4
19/02:00am 16.7 16.6 16.1 96 0.4 NNW 11 17 6 9 1014.7 1014.7 23.2
19/01:30am 16.6 16.9 16.0 96 0.4 SW 9 13 5 7 1014.6 1014.6 23.2
19/01:00am 16.1 15.8 15.5 96 0.3 SW 11 15 6 8 1015.0 1015.0 23.2
19/12:30am 15.7 16.0 15.1 96 0.3 WSW 7 9 4 5 1015.3 1015.3 23.2
19/12:00am 15.8 15.8 15.2 96 0.3 SW 9 11 5 6 1015.8 1015.8 23.2
 
Date/Time
EST
Temp
°C
App
Temp
°C
Dew
Point
°C
Rel
Hum
%
Delta-T
°C
Wind Press
QNH
hPa
Press
MSL
hPa
Rain since
9am
mm
Dir  Spd
km/h
Gust
km/h
Spd
kts
Gust
kts
18/11:30pm 15.7 15.7 15.1 96 0.3 WSW 9 11 5 6 1016.3 1016.3 23.2
18/11:00pm 15.6 15.9 15.0 96 0.3 W 7 9 4 5 1016.7 1016.7 23.2
18/10:30pm 16.1 16.2 15.5 96 0.3 WSW 9 11 5 6 1016.8 1016.8 23.0
18/10:00pm 16.2 16.3 15.6 96 0.3 SW 9 11 5 6 1017.0 1017.0 23.0
18/09:30pm 16.3 16.8 15.5 95 0.5 WSW 7 9 4 5 1017.0 1017.0 23.0
18/09:00pm 16.8 17.1 16.0 95 0.5 SW 9 11 5 6 1017.1 1017.1 23.0
18/08:30pm 17.1 17.5 16.3 95 0.5 SW 9 11 5 6 1017.1 1017.1 23.0
18/08:00pm 17.3 18.2 16.5 95 0.5 WSW 7 11 4 6 1017.2 1017.2 23.0
18/07:30pm 17.4 17.9 16.6 95 0.5 WSW 9 11 5 6 1017.1 1017.1 23.0
18/07:00pm 17.5 18.1 16.7 95 0.5 W 9 13 5 7 1016.9 1016.9 23.0
18/06:30pm 17.6 17.7 16.6 94 0.6 WSW 11 13 6 7 1016.7 1016.7 23.0
18/06:00pm 18.1 18.4 17.1 94 0.6 SW 11 15 6 8 1016.5 1016.5 22.2
18/05:30pm 18.1 19.2 17.1 94 0.6 WSW 7 9 4 5 1016.0 1016.0 21.8
18/05:00pm 18.4 19.6 17.4 94 0.6 WSW 7 9 4 5 1015.7 1015.7 21.4
18/04:30pm 18.2 19.0 17.2 94 0.6 WSW 9 11 5 6 1015.3 1015.3 21.0
18/04:26pm 18.3 19.1 17.3 94 0.6 WSW 9 13 5 7 1015.3 1015.3 21.0
18/04:23pm 18.4 19.2 17.4 94 0.6 WSW 9 13 5 7 1015.3 1015.3 20.8
18/04:10pm 18.4 19.6 17.4 94 0.6 WSW 7 9 4 5 1015.3 1015.3 20.4
18/04:00pm 18.5 19.4 17.5 94 0.6 WSW 9 11 5 6 1015.3 1015.3 19.8
18/03:54pm 18.5 20.0 17.5 94 0.6 WSW 6 9 3 5 1015.4 1015.4 19.6
18/03:34pm 18.5 20.0 17.5 94 0.6 WSW 6 9 3 5 1015.3 1015.3 18.8
18/03:31pm 18.6 19.9 17.6 94 0.6 WSW 7 9 4 5 1015.3 1015.3 18.6
18/03:30pm 18.5 19.8 17.5 94 0.6 WSW 7 9 4 5 1015.3 1015.3 18.6
18/03:18pm 18.5 19.4 17.5 94 0.6 W 9 11 5 6 1015.2 1015.2 18.0
18/03:00pm 18.6 19.9 17.6 94 0.6 WSW 7 11 4 6 1015.3 1015.3 17.2
18/02:50pm 18.5 19.4 17.5 94 0.6 W 9 11 5 6 1015.3 1015.3 16.2
18/02:30pm 18.5 19.4 17.5 94 0.6 WSW 9 11 5 6 1015.5 1015.5 15.0
18/02:10pm 18.5 19.0 17.5 94 0.6 W 11 13 6 7 1015.6 1015.6 14.4
18/02:00pm 18.5 19.4 17.5 94 0.6 SW 9 13 5 7 1015.6 1015.6 14.2
18/01:57pm 18.5 19.8 17.5 94 0.6 SW 7 11 4 6 1015.7 1015.7 14.0
18/01:51pm 18.5 19.7 17.3 93 0.7 SW 7 11 4 6 1015.8 1015.8 13.6
18/01:30pm 18.3 20.7 17.1 93 0.7 CALM 0 6 0 3 1016.1 1016.1 12.4
18/01:28pm 18.3 20.4 17.1 93 0.7 N 2 7 1 4 1016.1 1016.1 12.4
18/01:13pm 18.4 19.2 17.4 94 0.6 E 9 15 5 8 1016.3 1016.3 11.2
18/01:03pm 18.3 18.3 17.1 93 0.7 SSE 13 17 7 9 1016.3 1016.3 10.4
18/01:00pm 18.3 18.3 17.1 93 0.7 SSE 13 17 7 9 1016.3 1016.3 10.2
18/12:37pm 18.3 19.5 16.8 91 0.9 SW 6 7 3 4 1016.5 1016.5 8.6
18/12:30pm 17.9 18.7 16.4 91 0.9 WSW 7 11 4 6 1016.5 1016.5 8.0
18/12:00pm 18.5 20.0 16.7 89 1.1 NNE 4 7 2 4 1016.7 1016.7 3.6
18/11:46am 18.6 20.5 15.8 84 1.7 CALM 0 0 0 0 1016.9 1016.9 1.2
18/11:30am 18.9 19.5 16.9 88 1.2 WSW 9 13 5 7 1016.7 1016.7 0.8
18/11:00am 19.0 18.8 17.5 91 0.9 WNW 15 19 8 10 1016.6 1016.6 0.8
18/10:30am 18.6 18.5 16.9 90 1.0 NW 13 20 7 11 1016.7 1016.7 0.6
18/10:00am 19.0 19.2 17.7 92 0.8 NW 13 19 7 10 1016.9 1016.9 0.4
18/09:30am 18.7 19.2 17.4 92 0.8 NNW 11 15 6 8 1017.2 1017.2 0.2
18/09:03am 18.6 18.6 17.3 92 0.8 N 13 20 7 11 1017.6 1017.6 0.0
18/09:00am 18.5 18.5 17.2 92 0.8 N 13 20 7 11 1017.6 1017.6 8.8
18/08:31am 19.2 19.9 17.9 92 0.8 NNW 11 17 6 9 1017.6 1017.6 8.2
18/08:30am 19.3 20.0 18.0 92 0.8 NNW 11 17 6 9 1017.6 1017.6 8.2
18/08:17am 19.0 20.1 17.0 88 1.2 ESE 7 11 4 6 1017.4 1017.4 7.8
18/08:00am 18.5 18.0 17.0 91 0.9 ENE 15 20 8 11 1017.5 1017.5 7.6
18/07:54am 18.6 17.8 17.1 91 0.9 NE 17 20 9 11 1017.5 1017.5 7.2
18/07:30am 18.7 17.5 17.4 92 0.8 ENE 20 28 11 15 1017.4 1017.4 6.2
18/07:11am 18.5 19.2 17.0 91 0.9 NE 9 15 5 8 1017.5 1017.5 4.0
18/07:00am 18.8 19.1 17.1 90 1.0 ESE 11 15 6 8 1017.4 1017.4 2.0
18/06:59am 18.8 19.1 17.1 90 1.0 ESE 11 15 6 8 1017.4 1017.4 1.4
18/06:30am 19.1 19.9 16.3 84 1.7 SW 7 11 4 6 1017.0 1017.0 0.0
18/06:00am 19.5 19.1 16.3 82 1.9 W 13 17 7 9 1016.4 1016.4 0.0
18/05:30am 19.3 19.1 15.8 80 2.1 W 11 13 6 7 1016.3 1016.3 0.0
18/05:00am 21.0 20.7 14.4 66 3.8 N 9 15 5 8 1015.8 1015.8 0.0

Latest Capital City Observations: Canberra | Sydney | Melbourne | Brisbane | Adelaide | Perth | Hobart | Darwin

Other Formats:

Comma delimited format used in spreadsheet applications
http://www.bom.gov.au/fwo/IDQ60901/IDQ60901.94569.axf

JavaScript Object Notation format (JSON) in row-major order
http://www.bom.gov.au/fwo/IDQ60901/IDQ60901.94569.json